Time;durP1;ratioP1;P1;durP2;ratioP2;P2;SDS_P1;SDS_P2;PMS_P1;PMS_P2;Temp;Humidity;BMP_temperature;BMP_pressure;BME280_temperature;BME280_humidity;BME280_pressure;Samples;Min_cycle;Max_cycle;Signal;HPM_P1;HPM_P2
2020/12/12 00:00:38;;;;;;;;;;;;;;;-6.27;68.03;100778.96;1695554;84;20243;-76
2020/12/12 00:03:08;;;;;;;;;;;;;;;-6.24;67.93;100784.04;1692227;83;20189;-77
2020/12/12 00:05:38;;;;;;;;;;;;;;;-6.21;67.90;100777.13;1656208;84;20214;-77
2020/12/12 00:08:06;;;;;;;;;;;;;;;-6.18;67.68;100774.21;1660373;83;20546;-74
2020/12/12 00:10:33;;;;;;;;;;;;;;;-6.16;67.80;100768.74;1694490;84;20325;-75
2020/12/12 00:13:01;;;;;;;;;;;;;;;-6.12;67.72;100760.36;1691215;83;20208;-75
2020/12/12 00:15:32;;;;;;;;;;;;;;;-6.09;67.61;100760.10;1674602;84;20497;-75
2020/12/12 00:18:03;;;;;;;;;;;;;;;-6.07;67.45;100762.14;1673293;83;20223;-76
2020/12/12 00:20:34;;;;;;;;;;;;;;;-6.07;67.29;100750.16;1649355;86;20195;-76
2020/12/12 00:23:08;;;;;;;;;;;;;;;-6.06;67.40;100753.19;1691438;83;20511;-75
2020/12/12 00:25:36;;;;;;;;;;;;;;;-6.07;67.41;100746.16;1687792;84;20252;-75
2020/12/12 00:28:03;;;;;;;;;;;;;;;-6.06;67.45;100731.87;1699486;83;20199;-72
2020/12/12 00:30:31;;;;;;;;;;;;;;;-6.01;67.28;100734.98;1710876;83;20240;-74
2020/12/12 00:33:01;;;;;;;;;;;;;;;-6.04;67.10;100729.06;1724182;81;20205;-74
2020/12/12 00:35:28;;;;;;;;;;;;;;;-6.07;67.13;100726.17;1710563;83;20184;-72
2020/12/12 00:37:55;;;;;;;;;;;;;;;-6.08;67.14;100720.98;1710992;83;20204;-75
2020/12/12 00:40:23;;;;;;;;;;;;;;;-6.07;67.20;100722.17;1716651;81;20184;-73
2020/12/12 00:42:52;;;;;;;;;;;;;;;-6.05;67.18;100718.06;1708461;82;20158;-73
2020/12/12 00:45:20;;;;;;;;;;;;;;;-6.04;67.32;100707.27;1714615;81;20271;-73
2020/12/12 00:47:48;;;;;;;;;;;;;;;-5.98;67.20;100714.74;1714841;82;20557;-74
2020/12/12 00:50:16;;;;;;;;;;;;;;;-5.99;67.24;100711.71;1710214;81;20180;-74
2020/12/12 00:52:43;;;;;;;;;;;;;;;-5.97;66.98;100717.75;1684837;82;20203;-73
2020/12/12 00:55:11;;;;;;;;;;;;;;;-5.97;66.99;100713.75;1713185;81;20212;-74
2020/12/12 00:57:39;;;;;;;;;;;;;;;-5.97;67.02;100719.59;1693057;83;20203;-75
2020/12/12 01:00:06;;;;;;;;;;;;;;;-6.00;66.98;100711.86;1719619;81;20188;-75
2020/12/12 01:02:37;;;;;;;;;;;;;;;-6.01;67.14;100714.16;1717665;81;20160;-75
2020/12/12 01:05:05;;;;;;;;;;;;;;;-6.00;67.37;100713.19;1719645;81;20248;-75
2020/12/12 01:07:33;;;;;;;;;;;;;;;-5.98;67.32;100714.74;1724184;81;20217;-75
2020/12/12 01:10:00;;;;;;;;;;;;;;;-5.96;67.10;100707.94;1738307;81;20697;-75
2020/12/12 01:12:28;;;;;;;;;;;;;;;-5.92;67.20;100710.71;1722990;83;20188;-74
2020/12/12 01:14:55;;;;;;;;;;;;;;;-5.86;67.05;100707.50;1724354;81;20263;-73
2020/12/12 01:17:23;;;;;;;;;;;;;;;-5.89;67.12;100695.28;1737033;81;20209;-73
2020/12/12 01:19:51;;;;;;;;;;;;;;;-5.88;66.95;100699.65;1738627;81;20261;-74
2020/12/12 01:22:19;;;;;;;;;;;;;;;-5.89;67.16;100699.28;1734197;81;20221;-73
2020/12/12 01:24:46;;;;;;;;;;;;;;;-5.89;67.09;100691.28;1734799;82;20205;-74
2020/12/12 01:27:14;;;;;;;;;;;;;;;-5.90;66.98;100690.95;1713836;81;20464;-74
2020/12/12 01:29:42;;;;;;;;;;;;;;;-5.94;67.19;100688.17;1651799;83;20345;-75
2020/12/12 01:32:09;;;;;;;;;;;;;;;-5.90;67.18;100688.28;1723751;81;20272;-71
2020/12/12 01:34:37;;;;;;;;;;;;;;;-5.86;67.17;100688.84;1748282;81;20438;-72
2020/12/12 01:37:04;;;;;;;;;;;;;;;-5.85;67.02;100684.73;1721274;81;20173;-74
2020/12/12 01:39:32;;;;;;;;;;;;;;;-5.86;67.02;100684.36;1723117;83;20181;-74
2020/12/12 01:41:59;;;;;;;;;;;;;;;-5.85;67.11;100682.06;1714054;81;20392;-74
2020/12/12 01:44:27;;;;;;;;;;;;;;;-5.81;67.38;100679.92;1715752;81;20196;-72
2020/12/12 01:46:55;;;;;;;;;;;;;;;-5.73;67.11;100671.25;1735132;81;20248;-73
2020/12/12 01:49:22;;;;;;;;;;;;;;;-5.72;66.92;100682.28;1727063;81;20259;-71
2020/12/12 01:51:50;;;;;;;;;;;;;;;-5.73;67.00;100677.92;1721380;81;20184;-74
2020/12/12 01:54:17;;;;;;;;;;;;;;;-5.71;67.05;100669.30;1728271;81;20264;-76
2020/12/12 01:56:47;;;;;;;;;;;;;;;-5.76;67.24;100659.04;1720428;81;20505;-75
2020/12/12 01:59:16;;;;;;;;;;;;;;;-5.73;67.15;100660.11;1730410;81;20194;-75
2020/12/12 02:01:46;;;;;;;;;;;;;;;-5.71;66.96;100650.63;1725601;82;20295;-74
2020/12/12 02:04:17;;;;;;;;;;;;;;;-5.72;67.02;100648.96;1658459;83;20284;-73
2020/12/12 02:06:45;;;;;;;;;;;;;;;-5.74;67.12;100648.26;1674214;85;20191;-73
2020/12/12 02:09:14;;;;;;;;;;;;;;;-5.71;67.18;100642.16;1683596;83;20428;-73
2020/12/12 02:11:42;;;;;;;;;;;;;;;-5.68;67.09;100639.70;1712136;81;20195;-74
2020/12/12 02:14:11;;;;;;;;;;;;;;;-5.67;67.16;100640.07;1717022;81;20177;-74
2020/12/12 02:16:57;;;;;;;;;;;;;;;-5.63;67.12;100628.14;1736511;82;20528;-73
2020/12/12 02:19:25;;;;;;;;;;;;;;;-5.63;66.97;100632.14;1732681;81;20195;-73
2020/12/12 02:21:56;;;;;;;;;;;;;;;-5.63;66.93;100626.81;1736799;82;20266;-75
2020/12/12 02:24:24;;;;;;;;;;;;;;;-5.65;67.07;100630.95;1711698;81;20286;-75
2020/12/12 02:26:53;;;;;;;;;;;;;;;-5.65;66.93;100630.11;1712098;81;20173;-75
2020/12/12 02:29:20;;;;;;;;;;;;;;;-5.66;67.01;100624.41;1732312;81;20205;-75
2020/12/12 02:31:48;;;;;;;;;;;;;;;-5.62;67.13;100613.84;1711918;81;20177;-75
2020/12/12 02:34:16;;;;;;;;;;;;;;;-5.58;67.18;100620.58;1711041;83;20188;-74
2020/12/12 02:36:44;;;;;;;;;;;;;;;-5.61;67.14;100615.03;1733709;81;20219;-76
2020/12/12 02:39:13;;;;;;;;;;;;;;;-5.57;67.29;100624.94;1724147;82;20216;-75
2020/12/12 02:41:41;;;;;;;;;;;;;;;-5.50;67.06;100626.08;1710541;81;20184;-75
2020/12/12 02:44:09;;;;;;;;;;;;;;;-5.48;67.12;100624.11;1724220;82;20253;-73
2020/12/12 02:46:36;;;;;;;;;;;;;;;-5.47;66.86;100615.98;1719631;81;20208;-72
2020/12/12 02:49:07;;;;;;;;;;;;;;;-5.46;66.95;100618.14;1710928;83;20260;-73
2020/12/12 02:51:39;;;;;;;;;;;;;;;-5.44;67.01;100615.69;1719547;81;20272;-73
2020/12/12 02:54:07;;;;;;;;;;;;;;;-5.43;66.91;100617.88;1710564;84;20200;-72
2020/12/12 02:56:35;;;;;;;;;;;;;;;-5.43;66.86;100619.20;1713478;81;20207;-72
2020/12/12 02:59:02;;;;;;;;;;;;;;;-5.46;66.90;100606.14;1710926;84;20180;-72
2020/12/12 03:01:30;;;;;;;;;;;;;;;-5.46;67.05;100606.14;1731337;81;20667;-74
2020/12/12 03:03:58;;;;;;;;;;;;;;;-5.45;66.96;100607.84;1710919;84;20510;-75
2020/12/12 03:06:26;;;;;;;;;;;;;;;-5.48;67.20;100605.44;1710503;81;20462;-73
2020/12/12 03:08:54;;;;;;;;;;;;;;;-5.49;67.25;100601.11;1679342;83;20163;-72
2020/12/12 03:11:21;;;;;;;;;;;;;;;-5.45;67.25;100613.17;1688259;84;20181;-72
2020/12/12 03:13:49;;;;;;;;;;;;;;;-5.49;67.31;100615.26;1683561;83;20195;-75
2020/12/12 03:16:16;;;;;;;;;;;;;;;-5.53;67.43;100608.52;1679779;84;20212;-74
2020/12/12 03:18:44;;;;;;;;;;;;;;;-5.50;67.60;100603.41;1679318;83;20203;-75
2020/12/12 03:21:12;;;;;;;;;;;;;;;-5.46;67.64;100597.66;1679624;84;20259;-74
2020/12/12 03:23:39;;;;;;;;;;;;;;;-5.40;67.64;100595.78;1678952;83;20251;-75
2020/12/12 03:26:07;;;;;;;;;;;;;;;-5.34;67.45;100597.05;1699835;84;20503;-76
2020/12/12 03:28:34;;;;;;;;;;;;;;;-5.35;67.54;100589.53;1716021;82;20274;-72
2020/12/12 03:31:02;;;;;;;;;;;;;;;-5.33;67.71;100582.72;1697831;83;20254;-73
2020/12/12 03:33:29;;;;;;;;;;;;;;;-5.31;67.61;100582.08;1684400;83;20631;-74
2020/12/12 03:35:57;;;;;;;;;;;;;;;-5.31;67.82;100580.75;1698646;83;20178;-74
2020/12/12 03:38:25;;;;;;;;;;;;;;;-5.26;67.84;100576.69;1668871;83;20561;-71
2020/12/12 03:40:52;;;;;;;;;;;;;;;-5.23;67.79;100586.23;1704636;82;20253;-74
2020/12/12 03:43:22;;;;;;;;;;;;;;;-5.23;67.90;100579.08;1674593;85;20231;-71
2020/12/12 03:45:49;;;;;;;;;;;;;;;-5.20;67.96;100572.63;1675304;83;20192;-71
2020/12/12 03:48:17;;;;;;;;;;;;;;;-5.19;67.89;100572.98;1674595;86;20212;-72
2020/12/12 03:50:45;;;;;;;;;;;;;;;-5.18;68.09;100573.31;1686075;83;20192;-75
2020/12/12 03:53:12;;;;;;;;;;;;;;;-5.16;68.04;100574.86;1674408;84;20252;-75
2020/12/12 03:55:40;;;;;;;;;;;;;;;-5.10;68.00;100571.28;1716922;81;20259;-76
2020/12/12 03:58:07;;;;;;;;;;;;;;;-5.07;67.96;100540.31;1723901;83;20314;-76
2020/12/12 04:00:35;;;;;;;;;;;;;;;-5.02;67.80;100546.06;1724132;81;20198;-76
2020/12/12 04:03:03;;;;;;;;;;;;;;;-5.00;67.87;100542.27;1723946;83;20208;-75
2020/12/12 04:05:31;;;;;;;;;;;;;;;-4.97;67.73;100535.32;1721666;81;20158;-76
2020/12/12 04:07:58;;;;;;;;;;;;;;;-4.93;67.66;100527.36;1747340;81;20217;-77
2020/12/12 04:10:26;;;;;;;;;;;;;;;-4.93;67.61;100531.37;1719932;81;20239;-75
2020/12/12 04:12:53;;;;;;;;;;;;;;;-4.94;67.68;100531.52;1755977;81;20503;-74
2020/12/12 04:15:21;;;;;;;;;;;;;;;-4.93;67.70;100531.89;1734152;81;20344;-74
2020/12/12 04:17:48;;;;;;;;;;;;;;;-4.96;67.80;100529.02;1727105;81;20162;-73
2020/12/12 04:20:16;;;;;;;;;;;;;;;-4.98;67.90;100524.28;1723865;81;20514;-72
2020/12/12 04:22:44;;;;;;;;;;;;;;;-5.00;68.12;100524.92;1724781;81;20173;-72
2020/12/12 04:25:12;;;;;;;;;;;;;;;-5.01;68.19;100526.41;1744675;81;20181;-74
2020/12/12 04:27:40;;;;;;;;;;;;;;;-5.02;68.09;100527.39;1751062;81;20507;-74
2020/12/12 04:30:07;;;;;;;;;;;;;;;-5.05;68.25;100521.84;1739489;81;20192;-75
2020/12/12 04:32:35;;;;;;;;;;;;;;;-5.04;68.46;100523.53;1707179;83;20227;-74
2020/12/12 04:35:03;;;;;;;;;;;;;;;-5.03;68.28;100517.20;1716398;82;20300;-74
2020/12/12 04:37:31;;;;;;;;;;;;;;;-5.05;68.47;100533.00;1715428;81;20211;-74
2020/12/12 04:39:58;;;;;;;;;;;;;;;-5.05;68.45;100518.33;1715793;84;20556;-72
2020/12/12 04:42:26;;;;;;;;;;;;;;;-5.06;68.48;100522.00;1715948;81;20482;-74
2020/12/12 04:44:53;;;;;;;;;;;;;;;-5.11;68.56;100509.09;1716221;84;20559;-74
2020/12/12 04:47:21;;;;;;;;;;;;;;;-5.09;68.41;100515.60;1718086;81;20204;-72
2020/12/12 04:49:49;;;;;;;;;;;;;;;-5.09;68.49;100521.79;1720433;82;20177;-73
2020/12/12 04:52:17;;;;;;;;;;;;;;;-5.06;68.63;100517.51;1745816;82;20221;-73
2020/12/12 04:54:46;;;;;;;;;;;;;;;-5.06;68.52;100513.50;1739176;81;20218;-75
2020/12/12 04:57:14;;;;;;;;;;;;;;;-5.04;68.61;100526.20;1731464;82;20218;-75
2020/12/12 04:59:43;;;;;;;;;;;;;;;-5.01;68.55;100514.41;1715658;81;20397;-74
2020/12/12 05:02:14;;;;;;;;;;;;;;;-5.02;68.67;100516.22;1716076;84;20255;-75
2020/12/12 05:04:42;;;;;;;;;;;;;;;-4.98;68.70;100524.28;1691360;83;20510;-74
2020/12/12 05:07:10;;;;;;;;;;;;;;;-4.97;68.80;100525.98;1716327;84;20250;-75
2020/12/12 05:09:37;;;;;;;;;;;;;;;-4.92;68.85;100529.55;1715908;81;20160;-75
2020/12/12 05:12:05;;;;;;;;;;;;;;;-4.88;68.80;100526.95;1727321;83;20189;-76
2020/12/12 05:14:32;;;;;;;;;;;;;;;-4.85;68.70;100524.83;1737136;81;20249;-76
2020/12/12 05:17:00;;;;;;;;;;;;;;;-4.84;68.71;100525.19;1746669;82;20336;-73
2020/12/12 05:19:27;;;;;;;;;;;;;;;-4.86;69.17;100528.50;1652364;83;20229;-75
2020/12/12 05:21:55;;;;;;;;;;;;;;;-4.88;69.08;100526.95;1624463;86;20293;-73
2020/12/12 05:24:26;;;;;;;;;;;;;;;-4.87;69.17;100522.80;1647828;83;20184;-72
2020/12/12 05:26:59;;;;;;;;;;;;;;;-4.81;69.08;100523.57;1674441;86;20247;-72
2020/12/12 05:29:27;;;;;;;;;;;;;;;-4.76;69.14;100527.98;1716340;83;20237;-73
2020/12/12 05:31:57;;;;;;;;;;;;;;;-4.71;69.04;100516.38;1715889;81;20223;-75
2020/12/12 05:34:25;;;;;;;;;;;;;;;-4.71;69.12;100517.72;1726686;82;20245;-75
2020/12/12 05:36:53;;;;;;;;;;;;;;;-4.68;69.22;100515.25;1716043;81;20534;-74
2020/12/12 05:39:20;;;;;;;;;;;;;;;-4.66;69.26;100498.09;1692357;84;20191;-75
2020/12/12 05:41:48;;;;;;;;;;;;;;;-4.65;69.35;100502.42;1716491;81;20187;-73
2020/12/12 05:44:17;;;;;;;;;;;;;;;-4.60;69.25;100497.49;1716572;84;20180;-74
2020/12/12 05:46:44;;;;;;;;;;;;;;;-4.60;69.33;100489.48;1716439;81;20270;-75
2020/12/12 05:49:13;;;;;;;;;;;;;;;-4.60;69.45;100498.83;1691998;84;20211;-75
2020/12/12 05:51:40;;;;;;;;;;;;;;;-4.58;69.36;100498.18;1722029;81;20195;-74
2020/12/12 05:54:08;;;;;;;;;;;;;;;-4.58;69.52;100508.86;1716686;83;20204;-74
2020/12/12 05:56:38;;;;;;;;;;;;;;;-4.57;69.54;100522.58;1719011;81;20568;-75
2020/12/12 05:59:07;;;;;;;;;;;;;;;-4.57;69.67;100516.39;1716718;84;20518;-75
2020/12/12 06:01:34;;;;;;;;;;;;;;;-4.54;69.72;100512.95;1715545;81;20593;-74
2020/12/12 06:04:05;;;;;;;;;;;;;;;-4.47;69.72;100519.02;1692172;84;20251;-75
2020/12/12 06:06:33;;;;;;;;;;;;;;;-4.46;69.64;100517.56;1716130;83;20194;-76
2020/12/12 06:09:04;;;;;;;;;;;;;;;-4.46;69.78;100516.71;1691873;83;20171;-74
2020/12/12 06:11:33;;;;;;;;;;;;;;;-4.43;69.78;100516.42;1723429;83;20512;-76
2020/12/12 06:14:03;;;;;;;;;;;;;;;-4.39;69.76;100523.14;1730748;81;20195;-76
2020/12/12 06:16:32;;;;;;;;;;;;;;;-4.36;69.82;100510.83;1705590;83;20203;-75
2020/12/12 06:19:11;;;;;;;;;;;;;;;-4.33;69.82;100516.73;1720311;81;20235;-76
2020/12/12 06:21:41;;;;;;;;;;;;;;;-4.30;69.77;100528.96;1716084;84;20205;-77
2020/12/12 06:24:10;;;;;;;;;;;;;;;-4.32;69.91;100519.73;1716390;81;20203;-76
2020/12/12 06:27:02;;;;;;;;;;;;;;;-4.31;70.04;100512.57;1716276;84;20184;-78
2020/12/12 06:29:32;;;;;;;;;;;;;;;-4.29;70.12;100507.42;1716064;81;20251;-77
2020/12/12 06:31:59;;;;;;;;;;;;;;;-4.25;70.24;100507.46;1716069;83;20290;-77
2020/12/12 06:34:43;;;;;;;;;;;;;;;-4.20;70.19;100495.02;1725291;81;20519;-77
2020/12/12 06:37:30;;;;;;;;;;;;;;;-4.17;70.06;100485.34;1732250;82;20221;-77
2020/12/12 06:39:59;;;;;;;;;;;;;;;-4.15;70.02;100496.75;1720683;81;20521;-77
2020/12/12 06:42:35;;;;;;;;;;;;;;;-4.16;70.08;100496.39;1716143;84;20243;-75
2020/12/12 06:45:06;;;;;;;;;;;;;;;-4.15;70.04;100499.42;1716066;81;20188;-74
2020/12/12 06:47:39;;;;;;;;;;;;;;;-4.14;70.14;100493.07;1712841;84;20543;-75
2020/12/12 06:50:09;;;;;;;;;;;;;;;-4.17;70.18;100494.70;1714623;81;20256;-74
2020/12/12 06:52:37;;;;;;;;;;;;;;;-4.18;70.32;100481.86;1716020;84;20196;-75
2020/12/12 06:55:07;;;;;;;;;;;;;;;-4.17;70.41;100481.33;1716714;81;20216;-76
2020/12/12 06:57:46;;;;;;;;;;;;;;;-4.19;70.51;100479.31;1731058;83;20201;-73
2020/12/12 07:00:07;;;;;;;;;;;;;;;-4.20;70.55;100483.81;1732930;81;20492;-77
2020/12/12 07:02:35;;;;;;;;;;;;;;;-4.21;70.62;100475.95;1743789;82;20544;-78
2020/12/12 07:05:19;;;;;;;;;;;;;;;-4.21;70.62;100473.28;1743469;81;20742;-78
2020/12/12 07:07:47;;;;;;;;;;;;;;;-4.22;70.69;100475.59;1724538;83;20530;-78
2020/12/12 07:10:14;;;;;;;;;;;;;;;-4.20;70.77;100462.43;1716694;81;20705;-75
2020/12/12 07:12:42;;;;;;;;;;;;;;;-4.18;70.73;100467.64;1718073;82;20180;-76
2020/12/12 07:15:11;;;;;;;;;;;;;;;-4.15;70.81;100464.69;1716254;84;20693;-77
2020/12/12 07:17:39;;;;;;;;;;;;;;;-4.17;70.93;100468.82;1741276;81;20227;-75
2020/12/12 07:20:07;;;;;;;;;;;;;;;-4.15;71.02;100477.52;1745706;82;20245;-77
2020/12/12 07:22:35;;;;;;;;;;;;;;;-4.16;71.08;100478.53;1702528;82;20208;-76
2020/12/12 07:25:04;;;;;;;;;;;;;;;-4.15;71.24;100476.71;1725364;82;20581;-76
2020/12/12 07:27:32;;;;;;;;;;;;;;;-4.12;71.25;100473.22;1715901;81;20184;-77
2020/12/12 07:30:00;;;;;;;;;;;;;;;-4.08;71.33;100477.78;1716281;84;20204;-81
2020/12/12 07:32:27;;;;;;;;;;;;;;;-4.07;71.29;100479.45;1715587;81;20376;-78
2020/12/12 07:34:59;;;;;;;;;;;;;;;-4.05;71.43;100480.16;1716433;84;20219;-78
2020/12/12 07:37:28;;;;;;;;;;;;;;;-4.02;71.50;100475.34;1715647;81;20175;-83
2020/12/12 07:39:56;;;;;;;;;;;;;;;-3.97;71.50;100473.55;1716733;84;20203;-78
2020/12/12 07:42:24;;;;;;;;;;;;;;;-3.93;71.52;100473.61;1716056;81;20311;-78
2020/12/12 07:44:57;;;;;;;;;;;;;;;-3.89;71.44;100469.14;1716448;84;20175;-78
2020/12/12 07:47:23;;;;;;;;;;;;;;;-3.85;71.50;100475.04;1715607;81;20252;-85
2020/12/12 07:49:51;;;;;;;;;;;;;;;-3.87;71.64;100463.14;1722635;82;20185;-78
2020/12/12 07:52:18;;;;;;;;;;;;;;;-3.83;71.66;100467.70;1690823;82;20162;-77
2020/12/12 07:55:24;;;;;;;;;;;;;;;-3.83;71.65;100458.34;1719706;81;20175;-78
2020/12/12 07:57:24;;;;;;;;;;;;;;;-3.82;71.63;100460.04;1724897;83;20191;-77
2020/12/12 07:59:51;;;;;;;;;;;;;;;-3.83;71.86;100454.34;1686004;83;20247;-75
2020/12/12 08:02:19;;;;;;;;;;;;;;;-3.83;71.95;100454.82;1722531;82;20605;-73
2020/12/12 08:04:47;;;;;;;;;;;;;;;-3.86;71.99;100453.30;1684716;82;20531;-74
2020/12/12 08:07:20;;;;;;;;;;;;;;;-3.89;72.23;100451.77;1692285;84;20514;-74
2020/12/12 08:09:49;;;;;;;;;;;;;;;-3.90;72.37;100453.27;1688366;83;20539;-76
2020/12/12 08:12:34;;;;;;;;;;;;;;;-3.89;72.59;100442.89;1686998;84;20205;-76
2020/12/12 08:15:23;;;;;;;;;;;;;;;-3.87;72.61;100439.08;1704125;82;20729;-76
2020/12/12 08:17:40;;;;;;;;;;;;;;;-3.81;72.80;100432.28;1722569;82;20186;-77
2020/12/12 08:20:12;;;;;;;;;;;;;;;-3.76;72.72;100440.69;1720390;81;20176;-77
2020/12/12 08:22:45;;;;;;;;;;;;;;;-3.71;72.59;100435.72;1694084;81;20272;-82
2020/12/12 08:25:13;;;;;;;;;;;;;;;-3.67;72.72;100429.59;1703452;82;20185;-78
2020/12/12 08:27:40;;;;;;;;;;;;;;;-3.64;72.65;100423.94;1691548;82;20179;-78
2020/12/12 08:30:09;;;;;;;;;;;;;;;-3.59;72.78;100413.62;1693089;83;20562;-76
2020/12/12 08:32:42;;;;;;;;;;;;;;;-3.58;72.76;100404.09;1683835;84;20183;-76
2020/12/12 08:35:19;;;;;;;;;;;;;;;-3.56;72.83;100406.10;1690099;83;20194;-75
2020/12/12 08:37:58;;;;;;;;;;;;;;;-3.52;72.78;100403.48;1685559;83;20262;-75
2020/12/12 08:40:31;;;;;;;;;;;;;;;-3.44;72.88;100406.72;1718591;81;20247;-78
2020/12/12 08:43:02;;;;;;;;;;;;;;;-3.39;72.80;100409.24;1718214;82;20261;-77
2020/12/12 08:45:30;;;;;;;;;;;;;;;-3.41;72.77;100399.20;1699569;81;20217;-77
2020/12/12 08:48:11;;;;;;;;;;;;;;;-3.44;73.18;100403.52;1717478;81;20247;-76
2020/12/12 08:50:54;;;;;;;;;;;;;;;-3.41;73.33;100391.66;1719734;81;20201;-77
2020/12/12 08:53:36;;;;;;;;;;;;;;;-3.37;73.26;100394.39;1721736;81;20192;-76
2020/12/12 08:56:07;;;;;;;;;;;;;;;-3.34;73.32;100392.22;1721257;81;20322;-75
2020/12/12 08:58:57;;;;;;;;;;;;;;;-3.32;73.22;100391.59;1720130;82;20253;-77
2020/12/12 09:01:33;;;;;;;;;;;;;;;-3.29;72.98;100386.42;1722491;81;20201;-77
2020/12/12 09:04:13;;;;;;;;;;;;;;;-3.29;73.04;100388.58;1720437;82;20173;-76
2020/12/12 09:06:44;;;;;;;;;;;;;;;-3.30;73.23;100383.39;1720701;81;20205;-76
2020/12/12 09:09:16;;;;;;;;;;;;;;;-3.30;73.11;100381.56;1724027;81;20208;-77
2020/12/12 09:12:02;;;;;;;;;;;;;;;-3.32;73.20;100378.21;1718166;81;20196;-75
2020/12/12 09:14:32;;;;;;;;;;;;;;;-3.31;73.39;100377.20;1693771;82;20205;-76
2020/12/12 09:17:04;;;;;;;;;;;;;;;-3.27;73.41;100368.37;1679312;84;20322;-73
2020/12/12 09:19:34;;;;;;;;;;;;;;;-3.26;73.41;100378.91;1681027;83;20172;-75
2020/12/12 09:22:01;;;;;;;;;;;;;;;-3.25;73.40;100369.89;1682215;84;20219;-78
2020/12/12 09:24:29;;;;;;;;;;;;;;;-3.26;73.41;100377.56;1657285;84;20523;-76
2020/12/12 09:26:57;;;;;;;;;;;;;;;-3.26;73.38;100375.38;1686769;84;20606;-75
2020/12/12 09:29:25;;;;;;;;;;;;;;;-3.28;73.48;100371.53;1687915;83;20224;-75
2020/12/12 09:31:54;;;;;;;;;;;;;;;-3.25;73.59;100372.56;1686052;83;20805;-78
2020/12/12 09:34:23;;;;;;;;;;;;;;;-3.25;73.58;100369.05;1688706;83;20536;-79
2020/12/12 09:36:51;;;;;;;;;;;;;;;-3.27;73.57;100369.21;1724052;81;20482;-76
2020/12/12 09:39:19;;;;;;;;;;;;;;;-3.23;73.59;100361.20;1722374;81;20212;-76
2020/12/12 09:41:46;;;;;;;;;;;;;;;-3.23;73.79;100362.53;1727086;81;20185;-78
2020/12/12 09:44:14;;;;;;;;;;;;;;;-3.19;73.72;100358.21;1719306;81;20195;-78
2020/12/12 09:46:41;;;;;;;;;;;;;;;-3.19;73.69;100366.24;1723401;81;20664;-76
2020/12/12 09:49:10;;;;;;;;;;;;;;;-3.21;73.70;100361.88;1727777;81;20289;-76
2020/12/12 09:51:38;;;;;;;;;;;;;;;-3.24;73.83;100358.16;1715414;81;20211;-74
2020/12/12 09:54:05;;;;;;;;;;;;;;;-3.25;74.10;100364.53;1724320;81;20219;-76
2020/12/12 09:56:33;;;;;;;;;;;;;;;-3.26;74.27;100360.66;1719520;81;20252;-77
2020/12/12 09:59:01;;;;;;;;;;;;;;;-3.27;74.32;100359.84;1724448;81;20565;-75
2020/12/12 10:01:31;;;;;;;;;;;;;;;-3.24;74.42;100364.86;1717193;81;20349;-72
2020/12/12 10:04:00;;;;;;;;;;;;;;;-3.23;74.30;100363.88;1717411;81;20182;-78
2020/12/12 10:06:28;;;;;;;;;;;;;;;-3.21;74.31;100355.18;1722908;81;20182;-73
2020/12/12 10:08:55;;;;;;;;;;;;;;;-3.19;74.09;100355.05;1721066;81;20571;-77
2020/12/12 10:11:23;;;;;;;;;;;;;;;-3.18;74.35;100353.18;1717651;81;20537;-78
2020/12/12 10:13:50;;;;;;;;;;;;;;;-3.15;74.16;100355.55;1714194;81;20239;-77
2020/12/12 10:16:19;;;;;;;;;;;;;;;-3.14;74.26;100350.05;1719112;81;20207;-79
2020/12/12 10:18:47;;;;;;;;;;;;;;;-3.13;74.27;100354.39;1719931;81;20233;-78
2020/12/12 10:21:15;;;;;;;;;;;;;;;-3.10;74.11;100350.06;1720070;81;20176;-78
2020/12/12 10:23:43;;;;;;;;;;;;;;;-3.08;74.19;100344.05;1719866;81;20195;-78
2020/12/12 10:26:12;;;;;;;;;;;;;;;-3.05;74.27;100338.87;1666706;84;20292;-80
2020/12/12 10:28:40;;;;;;;;;;;;;;;-3.02;74.19;100348.77;1724949;81;20177;-86
2020/12/12 10:31:08;;;;;;;;;;;;;;;-3.00;74.10;100343.25;1687986;83;20245;-76
2020/12/12 10:33:37;;;;;;;;;;;;;;;-2.98;74.09;100343.92;1683884;84;20192;-73
2020/12/12 10:36:07;;;;;;;;;;;;;;;-3.00;73.98;100341.41;1724350;81;20244;-76
2020/12/12 10:38:35;;;;;;;;;;;;;;;-3.02;74.19;100338.55;1738346;81;20181;-76
2020/12/12 10:41:11;;;;;;;;;;;;;;;-3.01;74.29;100340.25;1721330;82;20227;-78
2020/12/12 10:43:35;;;;;;;;;;;;;;;-3.02;74.33;100331.86;1679939;83;20204;-80
2020/12/12 10:46:02;;;;;;;;;;;;;;;-3.03;74.42;100334.19;1682068;84;20196;-76
2020/12/12 10:48:31;;;;;;;;;;;;;;;-3.05;74.33;100332.17;1690956;83;20185;-82
2020/12/12 10:50:58;;;;;;;;;;;;;;;-3.07;74.24;100339.04;1684936;84;20192;-81
2020/12/12 10:53:26;;;;;;;;;;;;;;;-3.07;74.30;100333.69;1688194;83;20216;-85
2020/12/12 10:55:54;;;;;;;;;;;;;;;-3.06;74.30;100329.18;1693513;84;20511;-80
2020/12/12 10:58:22;;;;;;;;;;;;;;;-3.03;74.34;100330.17;1685835;83;20187;-79
2020/12/12 11:00:52;;;;;;;;;;;;;;;-3.01;74.33;100328.20;1686590;84;20225;-79
2020/12/12 11:03:19;;;;;;;;;;;;;;;-2.97;74.22;100329.55;1682343;83;20489;-77
2020/12/12 11:05:47;;;;;;;;;;;;;;;-2.98;74.10;100318.48;1692788;84;20187;-77
2020/12/12 11:08:14;;;;;;;;;;;;;;;-2.97;74.28;100317.50;1669328;83;20183;-81
2020/12/12 11:10:42;;;;;;;;;;;;;;;-2.93;74.11;100306.80;1687230;84;20683;-79
2020/12/12 11:13:10;;;;;;;;;;;;;;;-2.93;74.31;100310.81;1687299;83;20205;-81
2020/12/12 11:15:39;;;;;;;;;;;;;;;-2.91;74.17;100304.81;1691709;84;20292;-75
2020/12/12 11:18:09;;;;;;;;;;;;;;;-2.96;74.34;100291.08;1682504;84;20542;-79
2020/12/12 11:20:37;;;;;;;;;;;;;;;-2.98;74.51;100301.92;1681029;83;20259;-80
2020/12/12 11:23:05;;;;;;;;;;;;;;;-2.99;74.80;100296.25;1670206;84;20217;-79
2020/12/12 11:25:33;;;;;;;;;;;;;;;-3.00;74.78;100302.59;1685402;83;20545;-78
2020/12/12 11:28:00;;;;;;;;;;;;;;;-2.95;74.97;100296.75;1682641;84;20192;-79
2020/12/12 11:30:29;;;;;;;;;;;;;;;-2.95;75.00;100298.93;1719294;81;20188;-76
2020/12/12 11:32:57;;;;;;;;;;;;;;;-2.91;74.99;100300.27;1719700;81;20494;-78
2020/12/12 11:35:40;;;;;;;;;;;;;;;-2.86;75.17;100297.14;1719298;81;20219;-76
2020/12/12 11:38:45;;;;;;;;;;;;;;;-2.82;75.12;100306.52;1722580;82;20202;-73
2020/12/12 11:40:45;;;;;;;;;;;;;;;-2.79;75.34;100306.20;1685783;82;20215;-78
2020/12/12 11:48:25;;;;;;;;;;;;;;;-2.74;75.36;100310.56;1723645;81;20228;-83
2020/12/12 11:50:53;;;;;;;;;;;;;;;-2.72;75.50;100304.54;1716734;81;20196;-87
2020/12/12 11:53:21;;;;;;;;;;;;;;;-2.72;75.67;100300.52;1725072;81;20196;-83
2020/12/12 11:55:50;;;;;;;;;;;;;;;-2.68;75.79;100301.86;1719773;81;20199;-78
2020/12/12 11:58:18;;;;;;;;;;;;;;;-2.67;75.98;100308.91;1723746;82;20204;-81
2020/12/12 12:00:46;;;;;;;;;;;;;;;-2.70;76.05;100305.21;1722259;81;20216;-82
2020/12/12 12:03:14;;;;;;;;;;;;;;;-2.69;76.34;100316.28;1721863;83;20184;-78
2020/12/12 12:05:44;;;;;;;;;;;;;;;-2.72;76.53;100304.05;1721948;82;20618;-77
2020/12/12 12:08:27;;;;;;;;;;;;;;;-2.75;76.80;100302.18;1719607;81;20181;-79
2020/12/12 12:11:09;;;;;;;;;;;;;;;-2.79;77.14;100308.88;1721212;82;20527;-82
2020/12/12 12:13:23;;;;;;;;;;;;;;;-2.79;77.32;100303.52;1716207;81;20220;-84
2020/12/12 12:15:52;;;;;;;;;;;;;;;-2.79;77.43;100303.52;1726642;82;20186;-84
2020/12/12 12:18:21;;;;;;;;;;;;;;;-2.80;77.60;100307.19;1719297;81;20180;-86
2020/12/12 12:20:49;;;;;;;;;;;;;;;-2.84;77.62;100307.19;1719862;82;20184;-86
2020/12/12 12:23:16;;;;;;;;;;;;;;;-2.84;77.89;100305.34;1718538;81;20230;-79
2020/12/12 12:25:44;;;;;;;;;;;;;;;-2.85;78.35;100309.02;1725075;81;20252;-81
2020/12/12 12:28:13;;;;;;;;;;;;;;;-2.85;78.27;100308.17;1719917;81;20507;-79
2020/12/12 12:30:43;;;;;;;;;;;;;;;-2.85;78.41;100316.20;1719146;82;20194;-81
2020/12/12 12:33:10;;;;;;;;;;;;;;;-2.86;78.56;100317.22;1718308;81;20516;-76
2020/12/12 12:35:38;;;;;;;;;;;;;;;-2.84;78.73;100317.89;1714855;81;20546;-80
2020/12/12 12:38:06;;;;;;;;;;;;;;;-2.84;78.72;100309.86;1728047;81;20216;-88
2020/12/12 12:40:34;;;;;;;;;;;;;;;-2.81;78.78;100310.88;1724273;81;20247;-82
2020/12/12 12:43:01;;;;;;;;;;;;;;;-2.81;78.94;100310.88;1717393;81;20260;-78
2020/12/12 12:45:29;;;;;;;;;;;;;;;-2.82;79.04;100311.37;1714483;83;20514;-81
2020/12/12 12:47:57;;;;;;;;;;;;;;;-2.84;79.41;100315.22;1697903;81;20190;-74
2020/12/12 12:50:33;;;;;;;;;;;;;;;-2.85;79.61;100317.05;1710922;83;20196;-79